Time;durP1;ratioP1;P1;durP2;ratioP2;P2;SDS_P1;SDS_P2;PMS_P1;PMS_P2;Temp;Humidity;BMP_temperature;BMP_pressure;BME280_temperature;BME280_humidity;BME280_pressure;Samples;Min_cycle;Max_cycle;Signal;HPM_P1;HPM_P2
2024/03/08 00:01:32;;;;;;;36.70;20.08;;;;;;;;;;5072077;28;20479;-77
2024/03/08 00:03:58;;;;;;;36.47;18.88;;;;;;;;;;5070630;28;20145;-77
2024/03/08 00:06:24;;;;;;;36.10;21.52;;;;;;;;;;5070775;28;20028;-77
2024/03/08 00:08:51;;;;;;;35.22;21.70;;;;;;;;;;5070488;28;20032;-77
2024/03/08 00:11:17;;;;;;;28.77;17.33;;;;;;;;;;5070888;28;20122;-78
2024/03/08 00:13:44;;;;;;;42.65;25.55;;;;;;;;;;5073395;28;20130;-77
2024/03/08 00:16:10;;;;;;;38.60;22.10;;;;;;;;;;5074800;28;20114;-77
2024/03/08 00:18:37;;;;;;;33.17;19.25;;;;;;;;;;5075818;28;20272;-77
2024/03/08 00:21:03;;;;;;;41.58;22.70;;;;;;;;;;5075654;28;20053;-77
2024/03/08 00:23:29;;;;;;;39.53;23.10;;;;;;;;;;5074676;28;20025;-78
2024/03/08 00:25:55;;;;;;;32.22;18.92;;;;;;;;;;5074329;28;20028;-78
2024/03/08 00:28:21;;;;;;;38.35;20.15;;;;;;;;;;5074508;28;20036;-78
2024/03/08 00:30:47;;;;;;;34.30;20.40;;;;;;;;;;5075615;28;20033;-77
2024/03/08 00:33:13;;;;;;;36.53;21.08;;;;;;;;;;5074434;28;20376;-76
2024/03/08 00:35:39;;;;;;;36.13;21.45;;;;;;;;;;5074087;28;20025;-77
2024/03/08 00:38:05;;;;;;;31.13;19.10;;;;;;;;;;5074268;28;20024;-78
2024/03/08 00:40:31;;;;;;;35.10;21.50;;;;;;;;;;5074112;28;20057;-77
2024/03/08 00:42:57;;;;;;;30.48;17.67;;;;;;;;;;5074083;28;20032;-78
2024/03/08 00:45:23;;;;;;;33.28;19.10;;;;;;;;;;5073975;28;20024;-78
2024/03/08 00:47:50;;;;;;;39.53;21.67;;;;;;;;;;5073907;28;20086;-77
2024/03/08 00:50:16;;;;;;;32.45;19.55;;;;;;;;;;5075563;28;20065;-78
2024/03/08 00:52:42;;;;;;;33.08;19.25;;;;;;;;;;5073751;28;20021;-78
2024/03/08 00:55:10;;;;;;;33.92;21.33;;;;;;;;;;5075599;28;20364;-78
2024/03/08 00:57:36;;;;;;;36.33;20.67;;;;;;;;;;5075665;28;20063;-78
2024/03/08 01:00:04;;;;;;;34.83;20.10;;;;;;;;;;5074312;28;20029;-78
2024/03/08 01:02:30;;;;;;;35.05;20.20;;;;;;;;;;5077975;28;20495;-78
2024/03/08 01:04:56;;;;;;;37.15;21.60;;;;;;;;;;5074338;28;20036;-78
2024/03/08 01:07:22;;;;;;;35.65;22.15;;;;;;;;;;5075075;28;20025;-78
2024/03/08 01:09:48;;;;;;;33.70;18.52;;;;;;;;;;5073615;28;20029;-79
2024/03/08 01:12:14;;;;;;;34.38;21.88;;;;;;;;;;5073780;28;20025;-79
2024/03/08 01:14:40;;;;;;;33.13;19.70;;;;;;;;;;5073873;28;20027;-79
2024/03/08 01:17:06;;;;;;;33.58;18.83;;;;;;;;;;5073850;28;20082;-79
2024/03/08 01:19:33;;;;;;;31.80;19.13;;;;;;;;;;5073525;28;20046;-78
2024/03/08 01:21:59;;;;;;;30.30;19.10;;;;;;;;;;5074137;28;20443;-78
2024/03/08 01:24:25;;;;;;;35.30;19.23;;;;;;;;;;5074518;28;20028;-78
2024/03/08 01:26:51;;;;;;;32.70;18.65;;;;;;;;;;5073115;28;20029;-78
2024/03/08 01:29:17;;;;;;;34.90;23.27;;;;;;;;;;5073420;28;20465;-78
2024/03/08 01:31:43;;;;;;;37.47;22.70;;;;;;;;;;5073149;28;20021;-78
2024/03/08 01:34:10;;;;;;;29.23;17.98;;;;;;;;;;5073342;28;20016;-78
2024/03/08 01:36:37;;;;;;;29.70;19.63;;;;;;;;;;5074381;28;20482;-78
2024/03/08 01:39:07;;;;;;;34.53;22.55;;;;;;;;;;5074279;28;20395;-76
2024/03/08 01:41:33;;;;;;;27.65;16.40;;;;;;;;;;5074516;28;20372;-76
2024/03/08 01:43:59;;;;;;;42.67;24.05;;;;;;;;;;5072979;28;20021;-76
2024/03/08 01:46:28;;;;;;;32.03;18.40;;;;;;;;;;5074098;28;20028;-76
2024/03/08 01:48:54;;;;;;;26.10;15.40;;;;;;;;;;5072570;28;20032;-76
2024/03/08 01:51:20;;;;;;;29.35;19.00;;;;;;;;;;5073153;28;20028;-76
2024/03/08 01:53:47;;;;;;;25.55;16.42;;;;;;;;;;5073129;28;20044;-77
2024/03/08 01:56:13;;;;;;;29.92;20.52;;;;;;;;;;5073593;28;20419;-77
2024/03/08 01:58:44;;;;;;;34.85;22.13;;;;;;;;;;5073222;28;20025;-77
2024/03/08 02:01:12;;;;;;;33.05;20.20;;;;;;;;;;5072960;28;20051;-78
2024/03/08 02:03:38;;;;;;;30.05;18.55;;;;;;;;;;5072440;28;20029;-78
2024/03/08 02:06:05;;;;;;;30.58;18.70;;;;;;;;;;5072136;28;20029;-77
2024/03/08 02:08:31;;;;;;;32.10;18.90;;;;;;;;;;5073611;28;20078;-77
2024/03/08 02:10:57;;;;;;;33.90;21.02;;;;;;;;;;5072054;28;20537;-77
2024/03/08 02:13:23;;;;;;;32.95;20.00;;;;;;;;;;5072367;28;20484;-77
2024/03/08 02:15:56;;;;;;;31.50;20.30;;;;;;;;;;5072167;28;20028;-77
2024/03/08 02:18:23;;;;;;;27.80;18.10;;;;;;;;;;5072443;28;20031;-78
2024/03/08 02:20:59;;;;;;;34.97;22.95;;;;;;;;;;5073240;28;20499;-78
2024/03/08 02:23:26;;;;;;;34.55;20.02;;;;;;;;;;5072430;28;20368;-78
2024/03/08 02:25:53;;;;;;;33.13;19.48;;;;;;;;;;5071953;28;20468;-78
2024/03/08 02:28:19;;;;;;;36.65;23.67;;;;;;;;;;5072229;28;20039;-78
2024/03/08 02:30:49;;;;;;;34.15;21.80;;;;;;;;;;5072005;28;20042;-78
2024/03/08 02:33:19;;;;;;;33.28;21.45;;;;;;;;;;5073462;28;20082;-78
2024/03/08 02:35:46;;;;;;;37.28;21.77;;;;;;;;;;5072599;28;20028;-77
2024/03/08 02:38:19;;;;;;;34.92;19.05;;;;;;;;;;5073072;28;20028;-77
2024/03/08 02:40:45;;;;;;;38.35;22.90;;;;;;;;;;5073544;28;20027;-77
2024/03/08 02:43:12;;;;;;;33.83;22.48;;;;;;;;;;5073313;28;20029;-77
2024/03/08 02:45:38;;;;;;;42.15;23.20;;;;;;;;;;5071868;28;20024;-78
2024/03/08 02:48:14;;;;;;;44.15;24.38;;;;;;;;;;5071593;28;20123;-78
2024/03/08 02:50:42;;;;;;;33.15;22.48;;;;;;;;;;5072027;28;20028;-78
2024/03/08 02:53:08;;;;;;;37.35;23.90;;;;;;;;;;5073729;28;20044;-78
2024/03/08 02:55:35;;;;;;;35.47;22.90;;;;;;;;;;5073840;28;20043;-78
2024/03/08 02:58:03;;;;;;;38.83;23.73;;;;;;;;;;5073186;28;20034;-78
2024/03/08 03:00:30;;;;;;;31.58;19.60;;;;;;;;;;5074807;28;20020;-78
2024/03/08 03:02:56;;;;;;;30.50;20.33;;;;;;;;;;5071837;28;20021;-78
2024/03/08 03:05:23;;;;;;;35.70;24.33;;;;;;;;;;5071873;28;20077;-77
2024/03/08 03:07:49;;;;;;;34.67;21.15;;;;;;;;;;5073152;28;20162;-76
2024/03/08 03:10:16;;;;;;;35.80;22.38;;;;;;;;;;5071530;28;20039;-78
2024/03/08 03:12:43;;;;;;;37.40;22.08;;;;;;;;;;5071437;28;20013;-78
2024/03/08 03:15:09;;;;;;;37.15;24.88;;;;;;;;;;5072104;28;20388;-78
2024/03/08 03:17:35;;;;;;;34.70;22.45;;;;;;;;;;5071289;28;20078;-78
2024/03/08 03:20:09;;;;;;;37.63;24.42;;;;;;;;;;5070661;28;20431;-78
2024/03/08 03:22:35;;;;;;;36.60;24.35;;;;;;;;;;5071236;28;20028;-78
2024/03/08 03:25:02;;;;;;;40.80;25.50;;;;;;;;;;5071075;28;20024;-78
2024/03/08 03:27:30;;;;;;;39.05;26.27;;;;;;;;;;5072596;28;20059;-77
2024/03/08 03:29:57;;;;;;;43.88;25.65;;;;;;;;;;5072667;28;20108;-78
2024/03/08 03:32:23;;;;;;;38.70;26.00;;;;;;;;;;5071207;28;20460;-78
2024/03/08 03:34:52;;;;;;;36.55;22.80;;;;;;;;;;5070857;28;20025;-79
2024/03/08 03:37:19;;;;;;;39.53;23.23;;;;;;;;;;5071027;28;20542;-79
2024/03/08 03:39:48;;;;;;;31.92;21.30;;;;;;;;;;5072360;28;20133;-79
2024/03/08 03:42:18;;;;;;;33.55;22.17;;;;;;;;;;5071010;28;20107;-79
2024/03/08 03:44:47;;;;;;;36.88;22.83;;;;;;;;;;5072722;28;20025;-79
2024/03/08 03:47:14;;;;;;;39.67;24.65;;;;;;;;;;5070569;28;20107;-78
2024/03/08 03:49:40;;;;;;;32.60;19.15;;;;;;;;;;5072167;28;20059;-79
2024/03/08 03:52:06;;;;;;;38.10;24.02;;;;;;;;;;5070770;28;20111;-78
2024/03/08 03:54:33;;;;;;;41.60;25.67;;;;;;;;;;5072092;28;20436;-79
2024/03/08 03:57:00;;;;;;;40.83;23.48;;;;;;;;;;5071779;28;20380;-79
2024/03/08 03:59:26;;;;;;;37.97;24.38;;;;;;;;;;5071152;28;20025;-78
2024/03/08 04:01:53;;;;;;;35.53;23.35;;;;;;;;;;5072332;28;20044;-79
2024/03/08 04:04:19;;;;;;;35.92;22.48;;;;;;;;;;5072616;28;20017;-80
2024/03/08 04:06:45;;;;;;;34.53;22.95;;;;;;;;;;5072337;28;20029;-79
2024/03/08 04:09:12;;;;;;;38.90;23.13;;;;;;;;;;5070774;28;20524;-78
2024/03/08 04:11:38;;;;;;;39.33;25.95;;;;;;;;;;5070950;28;20047;-78
2024/03/08 04:14:05;;;;;;;38.33;24.88;;;;;;;;;;5071205;28;20025;-78
2024/03/08 04:16:31;;;;;;;27.70;16.70;;;;;;;;;;5071766;28;20031;-74
2024/03/08 04:18:57;;;;;;;35.78;23.25;;;;;;;;;;5071490;28;20163;-74
2024/03/08 04:21:23;;;;;;;42.80;27.38;;;;;;;;;;5071508;28;20041;-76
2024/03/08 04:23:49;;;;;;;35.30;21.77;;;;;;;;;;5071592;28;20033;-78
2024/03/08 04:26:16;;;;;;;37.42;23.77;;;;;;;;;;5070307;28;20029;-78
2024/03/08 04:28:42;;;;;;;40.47;26.02;;;;;;;;;;5072173;28;20452;-77
2024/03/08 04:31:08;;;;;;;40.08;25.98;;;;;;;;;;5070291;28;20032;-77
2024/03/08 04:33:37;;;;;;;34.05;20.77;;;;;;;;;;5070611;28;20021;-77
2024/03/08 04:36:04;;;;;;;37.35;23.25;;;;;;;;;;5070332;28;20401;-77
2024/03/08 04:38:30;;;;;;;38.40;22.95;;;;;;;;;;5070421;28;20082;-77
2024/03/08 04:40:56;;;;;;;39.35;23.90;;;;;;;;;;5071853;28;20495;-77
2024/03/08 04:43:25;;;;;;;35.97;23.00;;;;;;;;;;5071522;28;20036;-77
2024/03/08 04:45:51;;;;;;;44.03;28.60;;;;;;;;;;5071608;28;20027;-76
2024/03/08 04:48:17;;;;;;;42.35;25.15;;;;;;;;;;5070278;28;20028;-77
2024/03/08 04:50:44;;;;;;;37.40;23.23;;;;;;;;;;5071731;28;20020;-77
2024/03/08 04:53:10;;;;;;;37.85;19.75;;;;;;;;;;5070258;28;20120;-77
2024/03/08 04:55:37;;;;;;;43.53;26.65;;;;;;;;;;5070606;28;20032;-77
2024/03/08 04:58:05;;;;;;;41.17;26.13;;;;;;;;;;5071984;28;20063;-76
2024/03/08 05:00:32;;;;;;;38.70;23.88;;;;;;;;;;5075548;28;20013;-77
2024/03/08 05:02:58;;;;;;;31.90;19.45;;;;;;;;;;5075192;28;20519;-77
2024/03/08 05:05:26;;;;;;;34.40;20.60;;;;;;;;;;5073885;28;20480;-77
2024/03/08 05:07:52;;;;;;;46.67;26.13;;;;;;;;;;5073855;28;20052;-77
2024/03/08 05:10:18;;;;;;;38.50;23.98;;;;;;;;;;5074999;28;20032;-76
2024/03/08 05:12:44;;;;;;;40.00;24.08;;;;;;;;;;5073726;28;20020;-78
2024/03/08 05:15:10;;;;;;;40.25;26.15;;;;;;;;;;5074915;28;20032;-76
2024/03/08 05:17:36;;;;;;;38.53;23.95;;;;;;;;;;5073812;28;20032;-78
2024/03/08 05:20:03;;;;;;;40.28;25.02;;;;;;;;;;5074547;28;20021;-79
2024/03/08 05:22:31;;;;;;;37.10;23.83;;;;;;;;;;5073034;28;20048;-78
2024/03/08 05:24:57;;;;;;;36.47;22.90;;;;;;;;;;5074338;28;20025;-77
2024/03/08 05:27:23;;;;;;;40.03;24.70;;;;;;;;;;5074380;28;20128;-77
2024/03/08 05:29:49;;;;;;;41.78;26.25;;;;;;;;;;5074492;28;20507;-77
2024/03/08 05:32:15;;;;;;;38.50;22.73;;;;;;;;;;5074328;28;20021;-77
2024/03/08 05:34:41;;;;;;;37.15;23.33;;;;;;;;;;5074624;28;20020;-77
2024/03/08 05:37:07;;;;;;;38.95;26.00;;;;;;;;;;5074324;28;20499;-77
2024/03/08 05:39:33;;;;;;;35.38;21.20;;;;;;;;;;5074726;28;20021;-76
2024/03/08 05:41:59;;;;;;;34.63;22.08;;;;;;;;;;5072691;28;20036;-77
2024/03/08 05:44:28;;;;;;;38.70;25.38;;;;;;;;;;5073166;28;20028;-77
2024/03/08 05:46:55;;;;;;;38.58;24.00;;;;;;;;;;5074433;28;20059;-77
2024/03/08 05:49:21;;;;;;;31.15;20.38;;;;;;;;;;5074106;28;20472;-77
2024/03/08 05:51:48;;;;;;;40.03;25.00;;;;;;;;;;5074610;28;20028;-77
2024/03/08 05:54:14;;;;;;;34.70;21.23;;;;;;;;;;5072711;28;20021;-78
2024/03/08 05:56:42;;;;;;;37.97;22.83;;;;;;;;;;5072851;28;20082;-77
2024/03/08 05:59:09;;;;;;;41.30;25.70;;;;;;;;;;5073978;28;20048;-78
2024/03/08 06:01:36;;;;;;;43.78;27.40;;;;;;;;;;5072863;28;20029;-77
2024/03/08 06:04:02;;;;;;;37.25;23.50;;;;;;;;;;5073850;28;20017;-78
2024/03/08 06:06:28;;;;;;;40.55;24.73;;;;;;;;;;5073654;28;20043;-78
2024/03/08 06:08:56;;;;;;;37.10;23.65;;;;;;;;;;5072629;28;20039;-78
2024/03/08 06:11:23;;;;;;;35.90;21.42;;;;;;;;;;5072614;28;20017;-78
2024/03/08 06:13:49;;;;;;;43.85;24.35;;;;;;;;;;5073890;28;20017;-78
2024/03/08 06:16:16;;;;;;;41.45;25.63;;;;;;;;;;5072445;28;20036;-78
2024/03/08 06:18:42;;;;;;;47.97;30.33;;;;;;;;;;5072488;28;20024;-79
2024/03/08 06:21:11;;;;;;;44.22;27.15;;;;;;;;;;5071535;28;20048;-78
2024/03/08 06:23:41;;;;;;;46.47;27.73;;;;;;;;;;5073663;28;20028;-79
2024/03/08 06:26:07;;;;;;;42.92;27.08;;;;;;;;;;5072290;28;20032;-76
2024/03/08 06:28:34;;;;;;;33.33;21.25;;;;;;;;;;5072215;28;20032;-77
2024/03/08 06:31:00;;;;;;;38.65;22.92;;;;;;;;;;5073379;28;20027;-77
2024/03/08 06:33:26;;;;;;;38.70;24.27;;;;;;;;;;5072376;28;20028;-78
2024/03/08 06:35:54;;;;;;;42.35;24.92;;;;;;;;;;5072514;28;20478;-77
2024/03/08 06:38:20;;;;;;;39.53;23.45;;;;;;;;;;5072181;28;20702;-76
2024/03/08 06:40:47;;;;;;;38.20;25.90;;;;;;;;;;5073675;28;20155;-77
2024/03/08 06:43:16;;;;;;;36.70;24.80;;;;;;;;;;5072020;28;20020;-78
2024/03/08 06:45:48;;;;;;;33.53;20.45;;;;;;;;;;5073349;28;20025;-77
2024/03/08 06:48:14;;;;;;;38.13;25.73;;;;;;;;;;5071761;28;20029;-77
2024/03/08 06:50:40;;;;;;;41.15;27.00;;;;;;;;;;5073074;28;20127;-77
2024/03/08 06:53:06;;;;;;;38.90;26.13;;;;;;;;;;5073411;28;20047;-76
2024/03/08 06:55:32;;;;;;;39.25;23.83;;;;;;;;;;5071647;28;20118;-81
2024/03/08 06:57:59;;;;;;;36.30;24.15;;;;;;;;;;5074085;28;20166;-80
2024/03/08 07:00:27;;;;;;;34.40;22.63;;;;;;;;;;5071403;28;20029;-79
2024/03/08 07:02:53;;;;;;;37.55;22.77;;;;;;;;;;5073109;28;20087;-79
2024/03/08 07:05:19;;;;;;;34.50;21.70;;;;;;;;;;5071814;28;20030;-81
2024/03/08 07:07:49;;;;;;;33.40;22.52;;;;;;;;;;5071509;28;20475;-81
2024/03/08 07:10:15;;;;;;;38.63;24.60;;;;;;;;;;5071317;28;20024;-80
2024/03/08 07:12:42;;;;;;;42.90;28.10;;;;;;;;;;5070670;28;20017;-81
2024/03/08 07:15:13;;;;;;;41.35;23.13;;;;;;;;;;5072914;28;20162;-81
2024/03/08 07:17:39;;;;;;;35.33;21.48;;;;;;;;;;5071399;28;20476;-81
2024/03/08 07:20:10;;;;;;;39.42;26.15;;;;;;;;;;5071071;28;20024;-80
2024/03/08 07:22:38;;;;;;;36.72;21.73;;;;;;;;;;5070967;28;20016;-81
2024/03/08 07:25:20;;;;;;;36.20;23.45;;;;;;;;;;5071450;28;20024;-81
2024/03/08 07:27:47;;;;;;;36.47;22.38;;;;;;;;;;5071335;28;20436;-81
2024/03/08 07:30:52;;;;;;;32.72;19.52;;;;;;;;;;5071221;28;20028;-81
2024/03/08 07:33:02;;;;;;;34.03;23.00;;;;;;;;;;5072396;28;20425;-81
2024/03/08 07:35:28;;;;;;;42.78;25.27;;;;;;;;;;5070662;28;20545;-80
2024/03/08 07:37:54;;;;;;;35.65;22.27;;;;;;;;;;5071329;28;20408;-82
2024/03/08 07:40:21;;;;;;;37.65;23.95;;;;;;;;;;5071918;28;20021;-80
2024/03/08 07:42:47;;;;;;;36.53;23.75;;;;;;;;;;5071155;28;20031;-81
2024/03/08 07:45:13;;;;;;;36.92;23.85;;;;;;;;;;5070607;28;20044;-80
2024/03/08 07:47:40;;;;;;;34.92;22.33;;;;;;;;;;5070923;28;20082;-81
2024/03/08 07:50:08;;;;;;;24.52;14.10;;;;;;;;;;5072589;28;20435;-79
2024/03/08 07:52:34;;;;;;;32.25;21.05;;;;;;;;;;5071139;28;20388;-81
2024/03/08 07:55:00;;;;;;;41.05;26.88;;;;;;;;;;5071341;28;20024;-83
2024/03/08 07:57:26;;;;;;;41.50;27.92;;;;;;;;;;5070417;28;20040;-81
2024/03/08 07:59:52;;;;;;;44.40;28.63;;;;;;;;;;5070882;28;20048;-81
2024/03/08 08:02:18;;;;;;;45.65;28.45;;;;;;;;;;5072695;28;20017;-82
2024/03/08 08:04:44;;;;;;;41.08;27.45;;;;;;;;;;5071163;28;20032;-82
2024/03/08 08:07:11;;;;;;;42.85;27.90;;;;;;;;;;5070549;28;20029;-81
2024/03/08 08:09:37;;;;;;;39.03;27.40;;;;;;;;;;5070868;28;20129;-81
2024/03/08 08:12:03;;;;;;;41.50;28.00;;;;;;;;;;5070721;28;20044;-81
2024/03/08 08:14:30;;;;;;;39.40;24.63;;;;;;;;;;5070591;28;20021;-81
2024/03/08 08:16:57;;;;;;;38.85;28.02;;;;;;;;;;5070791;28;20087;-81
2024/03/08 08:19:23;;;;;;;38.05;25.95;;;;;;;;;;5070531;28;20477;-81
2024/03/08 08:21:49;;;;;;;40.33;26.00;;;;;;;;;;5070313;28;20056;-81
2024/03/08 08:24:15;;;;;;;38.35;28.13;;;;;;;;;;5070706;28;20494;-82
2024/03/08 08:26:41;;;;;;;41.15;27.55;;;;;;;;;;5072130;28;20035;-81
2024/03/08 08:29:08;;;;;;;37.85;26.85;;;;;;;;;;5070426;28;20035;-81
2024/03/08 08:31:34;;;;;;;39.85;26.27;;;;;;;;;;5070858;28;20020;-81
2024/03/08 08:34:00;;;;;;;38.90;22.80;;;;;;;;;;5071134;28;20029;-80
2024/03/08 08:36:26;;;;;;;38.65;25.27;;;;;;;;;;5075071;28;20036;-80
2024/03/08 08:38:56;;;;;;;39.92;27.90;;;;;;;;;;5074488;28;20044;-81
2024/03/08 08:41:22;;;;;;;30.13;19.27;;;;;;;;;;5075625;28;20102;-80
2024/03/08 08:43:49;;;;;;;32.20;21.50;;;;;;;;;;5074621;28;20405;-82
2024/03/08 08:46:17;;;;;;;32.47;21.42;;;;;;;;;;5075535;28;20024;-81
2024/03/08 08:48:45;;;;;;;36.15;25.23;;;;;;;;;;5074517;28;20040;-81
2024/03/08 08:51:15;;;;;;;40.97;27.85;;;;;;;;;;5075873;28;20069;-80
2024/03/08 08:53:43;;;;;;;38.63;24.65;;;;;;;;;;5075279;28;20059;-81
2024/03/08 08:56:15;;;;;;;36.83;26.45;;;;;;;;;;5076092;28;20039;-81
2024/03/08 08:58:42;;;;;;;38.80;25.25;;;;;;;;;;5075668;28;20035;-81
2024/03/08 09:01:09;;;;;;;32.80;21.88;;;;;;;;;;5074061;28;20353;-80
2024/03/08 09:03:36;;;;;;;35.78;25.27;;;;;;;;;;5076189;28;20029;-81
2024/03/08 09:06:03;;;;;;;33.53;21.10;;;;;;;;;;5075112;28;20017;-81
2024/03/08 09:08:29;;;;;;;36.25;24.23;;;;;;;;;;5075403;28;20437;-80
2024/03/08 09:10:56;;;;;;;33.20;21.25;;;;;;;;;;5074362;28;20032;-81
2024/03/08 09:13:22;;;;;;;33.08;23.25;;;;;;;;;;5073961;28;20112;-81
2024/03/08 09:15:49;;;;;;;32.10;22.20;;;;;;;;;;5073887;28;20108;-81
2024/03/08 09:18:15;;;;;;;35.17;25.73;;;;;;;;;;5074782;28;20521;-82
2024/03/08 09:20:41;;;;;;;37.80;25.40;;;;;;;;;;5073430;28;20166;-81
2024/03/08 09:23:08;;;;;;;37.53;23.85;;;;;;;;;;5074995;28;20029;-82
2024/03/08 09:25:34;;;;;;;35.88;25.95;;;;;;;;;;5073584;28;20016;-81
2024/03/08 09:28:00;;;;;;;38.15;26.63;;;;;;;;;;5073436;28;20067;-81
2024/03/08 09:30:26;;;;;;;34.22;24.98;;;;;;;;;;5074421;28;20109;-80
2024/03/08 09:32:52;;;;;;;34.78;25.05;;;;;;;;;;5073583;28;20063;-80
2024/03/08 09:35:18;;;;;;;34.53;25.67;;;;;;;;;;5073120;28;20024;-80
2024/03/08 09:37:47;;;;;;;31.38;22.77;;;;;;;;;;5073243;28;20475;-81
2024/03/08 09:40:15;;;;;;;34.58;25.23;;;;;;;;;;5074533;28;20420;-81
2024/03/08 09:42:41;;;;;;;32.65;19.85;;;;;;;;;;5073404;28;20025;-81
2024/03/08 09:45:16;;;;;;;33.75;23.67;;;;;;;;;;5072805;28;20028;-81
2024/03/08 09:47:45;;;;;;;33.38;23.38;;;;;;;;;;5074171;28;20028;-82
2024/03/08 09:50:15;;;;;;;39.30;27.67;;;;;;;;;;5072904;28;20024;-81
2024/03/08 09:52:43;;;;;;;36.40;26.50;;;;;;;;;;5073083;28;20031;-81
2024/03/08 09:55:13;;;;;;;36.70;24.27;;;;;;;;;;5072763;28;20020;-81
2024/03/08 09:57:40;;;;;;;31.52;22.70;;;;;;;;;;5072873;28;20434;-81
2024/03/08 10:00:28;;;;;;;30.85;22.20;;;;;;;;;;5073041;28;20067;-81
2024/03/08 10:02:53;;;;;;;31.33;21.27;;;;;;;;;;5073846;28;20042;-81
2024/03/08 10:05:21;;;;;;;32.35;23.25;;;;;;;;;;5074268;28;20414;-81
2024/03/08 10:07:48;;;;;;;33.53;24.45;;;;;;;;;;5072666;28;20040;-81
2024/03/08 10:10:14;;;;;;;33.53;22.98;;;;;;;;;;5072674;28;20025;-81
2024/03/08 10:12:40;;;;;;;31.80;22.38;;;;;;;;;;5074432;28;20019;-81
2024/03/08 10:15:09;;;;;;;29.98;22.42;;;;;;;;;;5072783;28;20027;-81
2024/03/08 10:17:35;;;;;;;31.30;23.45;;;;;;;;;;5072428;28;20135;-81
2024/03/08 10:20:03;;;;;;;31.02;22.25;;;;;;;;;;5072642;28;20170;-82
2024/03/08 10:22:31;;;;;;;29.50;20.45;;;;;;;;;;5072197;28;20043;-82
2024/03/08 10:24:57;;;;;;;29.83;21.65;;;;;;;;;;5072737;28;20016;-82
2024/03/08 10:27:23;;;;;;;29.50;20.83;;;;;;;;;;5072556;28;20387;-81
2024/03/08 10:29:51;;;;;;;28.63;20.30;;;;;;;;;;5072590;28;20376;-82
2024/03/08 10:32:17;;;;;;;31.83;22.70;;;;;;;;;;5072410;28;20027;-82
2024/03/08 10:34:44;;;;;;;31.38;23.70;;;;;;;;;;5072429;28;20017;-81
2024/03/08 10:37:17;;;;;;;32.83;22.83;;;;;;;;;;5072335;28;20056;-81
2024/03/08 10:39:47;;;;;;;32.13;23.33;;;;;;;;;;5073357;28;20476;-82
2024/03/08 10:42:19;;;;;;;29.90;19.45;;;;;;;;;;5071870;28;20024;-80
2024/03/08 10:45:07;;;;;;;32.58;22.33;;;;;;;;;;5072227;28;20475;-81
2024/03/08 10:47:36;;;;;;;30.67;20.70;;;;;;;;;;5071825;28;20130;-81
2024/03/08 10:50:12;;;;;;;29.33;22.13;;;;;;;;;;5072169;28;20020;-82
2024/03/08 10:52:40;;;;;;;27.65;20.83;;;;;;;;;;5072620;28;20123;-81
2024/03/08 10:55:12;;;;;;;29.40;20.13;;;;;;;;;;5072555;28;20074;-81
2024/03/08 10:57:39;;;;;;;29.17;22.35;;;;;;;;;;5073985;28;20033;-81
2024/03/08 11:00:09;;;;;;;30.85;19.77;;;;;;;;;;5073236;28;20380;-82
2024/03/08 11:02:37;;;;;;;28.42;22.05;;;;;;;;;;5055287;28;20044;-81
2024/03/08 11:05:05;;;;;;;29.20;20.98;;;;;;;;;;5071752;28;20380;-82
2024/03/08 11:07:35;;;;;;;16.50;12.02;;;;;;;;;;5072847;28;20120;-82
2024/03/08 11:10:05;;;;;;;30.40;18.63;;;;;;;;;;5073068;28;20469;-82
2024/03/08 11:12:36;;;;;;;20.90;14.35;;;;;;;;;;5054616;28;20065;-82
2024/03/08 11:15:11;;;;;;;23.63;15.27;;;;;;;;;;5071650;28;20025;-82
2024/03/08 11:17:41;;;;;;;23.45;16.23;;;;;;;;;;5071469;28;20108;-82
2024/03/08 11:20:07;;;;;;;;;;;;;;;;;;5071821;28;20479;-82
2024/03/08 11:22:33;;;;;;;24.08;17.70;;;;;;;;;;5071463;28;20001;-81
2024/03/08 11:25:02;;;;;;;25.85;18.30;;;;;;;;;;5073046;28;20361;-82
2024/03/08 11:27:33;;;;;;;26.92;18.60;;;;;;;;;;5071905;28;20029;-80
2024/03/08 11:30:10;;;;;;;21.23;15.55;;;;;;;;;;5074595;28;20357;-81
2024/03/08 11:32:37;;;;;;;27.92;18.20;;;;;;;;;;5072114;28;20416;-82
2024/03/08 11:35:06;;;;;;;23.67;17.50;;;;;;;;;;5072067;28;20115;-82
2024/03/08 11:37:35;;;;;;;26.30;18.92;;;;;;;;;;5070996;28;20511;-83
2024/03/08 11:40:04;;;;;;;23.63;17.67;;;;;;;;;;5071141;28;20460;-84
2024/03/08 11:42:30;;;;;;;23.52;18.55;;;;;;;;;;5070956;28;20032;-82
2024/03/08 11:44:57;;;;;;;23.48;17.42;;;;;;;;;;5071210;28;20032;-82
2024/03/08 11:47:26;;;;;;;24.05;17.30;;;;;;;;;;5070953;28;20448;-83
2024/03/08 11:49:53;;;;;;;21.65;15.38;;;;;;;;;;5071118;28;20062;-83
2024/03/08 11:52:19;;;;;;;26.73;20.05;;;;;;;;;;5071022;28;20020;-82
2024/03/08 11:54:51;;;;;;;19.20;13.85;;;;;;;;;;5071266;28;20033;-82
2024/03/08 11:57:23;;;;;;;22.95;17.60;;;;;;;;;;5070947;28;20032;-82
2024/03/08 11:59:53;;;;;;;22.60;16.33;;;;;;;;;;5071206;28;20017;-83
2024/03/08 12:02:19;;;;;;;22.27;14.57;;;;;;;;;;5070969;28;20120;-83
2024/03/08 12:04:46;;;;;;;21.38;16.50;;;;;;;;;;5070959;28;20503;-83
2024/03/08 12:07:14;;;;;;;22.70;15.18;;;;;;;;;;5071011;28;20032;-83
2024/03/08 12:09:40;;;;;;;20.92;14.43;;;;;;;;;;5074858;28;20035;-83
2024/03/08 12:12:07;;;;;;;19.00;13.77;;;;;;;;;;5075072;28;20025;-82
2024/03/08 12:14:37;;;;;;;22.65;14.20;;;;;;;;;;5075123;28;20025;-82
2024/03/08 12:17:04;;;;;;;23.08;15.07;;;;;;;;;;5075349;28;20032;-82
2024/03/08 12:19:30;;;;;;;21.48;15.35;;;;;;;;;;5074501;28;20024;-83
2024/03/08 12:21:56;;;;;;;18.48;15.10;;;;;;;;;;5074727;28;20309;-83
2024/03/08 12:24:23;;;;;;;23.55;16.10;;;;;;;;;;5075861;28;20025;-82
2024/03/08 12:26:49;;;;;;;22.80;16.95;;;;;;;;;;5074916;28;20078;-82
2024/03/08 12:29:26;;;;;;;22.63;16.75;;;;;;;;;;5074829;28;20033;-81
2024/03/08 12:31:53;;;;;;;22.42;16.17;;;;;;;;;;5076166;28;20021;-82
2024/03/08 12:34:19;;;;;;;22.30;16.33;;;;;;;;;;5074493;28;20050;-82
2024/03/08 12:36:47;;;;;;;24.55;13.75;;;;;;;;;;5074506;28;20029;-84
2024/03/08 12:39:15;;;;;;;19.05;14.35;;;;;;;;;;5074720;28;20021;-83
2024/03/08 12:41:42;;;;;;;23.77;16.60;;;;;;;;;;5074353;28;20025;-83
2024/03/08 12:44:11;;;;;;;24.80;16.75;;;;;;;;;;5074689;28;20032;-83
2024/03/08 12:46:40;;;;;;;19.40;13.40;;;;;;;;;;5074518;28;20024;-83
2024/03/08 12:49:06;;;;;;;24.50;17.73;;;;;;;;;;5075991;28;20020;-83
2024/03/08 12:51:33;;;;;;;18.45;12.57;;;;;;;;;;5075641;28;20024;-83
2024/03/08 12:53:59;;;;;;;19.52;14.15;;;;;;;;;;5075504;28;20298;-83
2024/03/08 12:56:37;;;;;;;22.55;17.05;;;;;;;;;;5075158;28;20039;-85
2024/03/08 12:59:03;;;;;;;23.65;18.33;;;;;;;;;;5074734;28;20024;-86
2024/03/08 13:01:31;;;;;;;22.45;17.17;;;;;;;;;;5074281;28;20020;-86
2024/03/08 13:04:06;;;;;;;22.48;16.02;;;;;;;;;;5074530;28;20144;-84
2024/03/08 13:06:32;;;;;;;22.13;16.83;;;;;;;;;;5073500;28;20437;-84
2024/03/08 13:08:58;;;;;;;24.77;18.80;;;;;;;;;;5075597;28;20499;-84
2024/03/08 13:11:25;;;;;;;25.02;17.92;;;;;;;;;;5074124;28;20029;-84
2024/03/08 13:13:55;;;;;;;25.92;18.65;;;;;;;;;;5074080;28;20024;-85
2024/03/08 13:16:21;;;;;;;21.63;16.10;;;;;;;;;;5074610;28;20111;-85
2024/03/08 13:18:48;;;;;;;16.90;11.60;;;;;;;;;;5074243;28;20024;-84
2024/03/08 13:21:14;;;;;;;17.80;13.38;;;;;;;;;;5073420;28;20079;-84
2024/03/08 13:23:45;;;;;;;23.80;17.50;;;;;;;;;;5073628;28;20028;-85
2024/03/08 13:26:15;;;;;;;24.27;15.45;;;;;;;;;;5074057;28;20021;-84
2024/03/08 13:28:41;;;;;;;;;;;;;;;;;;5075616;28;20021;-84
2024/03/08 13:31:09;;;;;;;16.48;10.77;;;;;;;;;;5073898;28;19912;-83
2024/03/08 13:33:36;;;;;;;23.33;16.73;;;;;;;;;;5073726;28;20024;-82
2024/03/08 13:36:04;;;;;;;25.00;19.25;;;;;;;;;;5073848;28;20472;-84
2024/03/08 13:38:32;;;;;;;24.73;17.90;;;;;;;;;;5073661;28;20028;-84
2024/03/08 13:40:58;;;;;;;20.58;14.52;;;;;;;;;;5073825;28;20090;-84
2024/03/08 13:43:24;;;;;;;24.50;17.42;;;;;;;;;;5075121;28;20019;-80
2024/03/08 13:45:51;;;;;;;22.95;17.33;;;;;;;;;;5074601;28;20048;-86
2024/03/08 13:48:17;;;;;;;28.50;19.17;;;;;;;;;;5075197;28;20033;-86
2024/03/08 13:50:43;;;;;;;26.65;18.15;;;;;;;;;;5077207;28;20592;-86
2024/03/08 13:53:10;;;;;;;21.48;16.05;;;;;;;;;;5079533;28;20036;-84
2024/03/08 13:55:36;;;;;;;26.20;19.17;;;;;;;;;;5084262;28;20025;-86
2024/03/08 13:58:02;;;;;;;24.50;17.98;;;;;;;;;;5078976;28;20119;-86
2024/03/08 14:00:33;;;;;;;27.25;18.42;;;;;;;;;;5073596;28;20461;-88
2024/03/08 14:02:59;;;;;;;24.38;18.48;;;;;;;;;;5074897;28;20475;-84
2024/03/08 14:05:25;;;;;;;19.58;13.48;;;;;;;;;;5074193;28;20491;-85
2024/03/08 14:07:54;;;;;;;23.15;18.35;;;;;;;;;;5074362;28;20376;-85
2024/03/08 14:10:22;;;;;;;26.35;18.77;;;;;;;;;;5073753;28;20052;-86
2024/03/08 14:12:50;;;;;;;22.63;14.90;;;;;;;;;;5073413;28;20374;-86
2024/03/08 14:15:16;;;;;;;23.10;17.65;;;;;;;;;;5073332;28;20031;-86
2024/03/08 14:17:43;;;;;;;23.50;18.13;;;;;;;;;;5073179;28;20036;-86
2024/03/08 14:20:09;;;;;;;23.17;16.20;;;;;;;;;;5073029;28;20029;-87